Pantego, Texas
Current Conditions -  °F | °C
As of 1:13 AM on Sunday 23 Nov 2014 (Local Time) from KGKY Reporting Station
Haze Haze  
Wind Chill: 12°   Ceiling: Unl
Heat Index: 12°   Visibility: 4mi
Dew Point: 10°   Wind: 0mph
Humidity: 89%   Direction: NA
Pressure: 29.66"   Gusts: NA
Location:  32.6916°N, 97.1334°W
Report Text: KGKY 230713Z AUTO 00000KT 4SM BR CLR 12/10 A2966 RMK AO2 T01170100
Loading
Personal Weather Stations






























Interactive Weather Map New forecast layout! Learn more

10-Day Weather Forecast

Advertisements
Track Severe Weather on mobile